Time,TemperatureF,DewpointF,PressureIn,WindDirection,WindDirectionDegrees,WindSpeedMPH,WindSpeedGustMPH,Humidity,HourlyPrecipIn,Conditions,Clouds,dailyrainin,SoftwareType,DateUTC
2013-08-21 00:06:00,69.1,61.9,30.00,SSE,157,0.0,-999.0,78,-99.99,,,0.00,Acu-Link.com,2013-08-21 04:06:00,
2013-08-21 00:21:00,68.4,61.3,30.01,South,180,0.0,-999.0,78,-99.99,,,0.00,Acu-Link.com,2013-08-21 04:21:00,
2013-08-21 00:37:00,67.8,60.3,30.01,NNE,22,1.1,-999.0,77,-99.99,,,0.00,Acu-Link.com,2013-08-21 04:37:00,
2013-08-21 00:52:00,67.8,60.3,30.01,South,180,0.0,-999.0,77,-99.99,,,0.00,Acu-Link.com,2013-08-21 04:52:00,
2013-08-21 01:07:00,68.0,60.5,30.01,SSW,202,2.7,-999.0,77,-99.99,,,0.00,Acu-Link.com,2013-08-21 05:07:00,
2013-08-21 01:22:00,67.5,60.4,30.02,East,90,1.1,-999.0,78,-99.99,,,0.00,Acu-Link.com,2013-08-21 05:22:00,
2013-08-21 01:37:00,67.3,60.6,30.01,SSE,157,2.2,-999.0,79,-99.99,,,0.00,Acu-Link.com,2013-08-21 05:37:00,
2013-08-21 01:53:00,66.7,60.0,30.01,South,180,0.0,-999.0,79,-99.99,,,0.00,Acu-Link.com,2013-08-21 05:53:00,
2013-08-21 02:08:00,66.6,60.9,30.01,SSW,202,2.7,-999.0,82,-99.99,,,0.00,Acu-Link.com,2013-08-21 06:08:00,
2013-08-21 02:23:00,66.6,60.9,30.02,West,270,0.0,-999.0,82,-99.99,,,0.00,Acu-Link.com,2013-08-21 06:23:00,
2013-08-21 02:38:00,66.0,60.7,30.02,SW,225,3.2,-999.0,83,-99.99,,,0.00,Acu-Link.com,2013-08-21 06:38:00,
2013-08-21 02:53:00,65.5,60.5,30.02,SSW,202,2.2,-999.0,84,-99.99,,,0.00,Acu-Link.com,2013-08-21 06:53:00,
2013-08-21 03:09:00,65.3,60.3,30.02,SW,225,2.2,-999.0,84,-99.99,,,0.00,Acu-Link.com,2013-08-21 07:09:00,
2013-08-21 03:24:00,64.8,60.2,30.02,NW,315,0.0,-999.0,85,-99.99,,,0.00,Acu-Link.com,2013-08-21 07:24:00,
2013-08-21 03:39:00,64.2,59.9,30.02,East,90,0.0,-999.0,86,-99.99,,,0.00,Acu-Link.com,2013-08-21 07:39:00,
2013-08-21 03:55:00,64.0,60.4,30.02,NE,45,0.0,-999.0,88,-99.99,,,0.00,Acu-Link.com,2013-08-21 07:55:00,
2013-08-21 04:10:00,64.0,60.4,30.02,SW,225,0.0,-999.0,88,-99.99,,,0.00,Acu-Link.com,2013-08-21 08:10:00,
2013-08-21 04:26:00,63.7,60.4,30.03,SSW,202,0.0,-999.0,89,-99.99,,,0.00,Acu-Link.com,2013-08-21 08:26:00,
2013-08-21 04:41:00,63.7,60.4,30.03,SSW,202,3.7,-999.0,89,-99.99,,,0.00,Acu-Link.com,2013-08-21 08:41:00,
2013-08-21 04:56:00,63.3,60.3,30.03,SSW,202,1.7,-999.0,90,-99.99,,,0.00,Acu-Link.com,2013-08-21 08:56:00,
2013-08-21 05:11:00,63.3,60.0,30.03,WSW,247,2.7,-999.0,89,-99.99,,,0.00,Acu-Link.com,2013-08-21 09:11:00,
2013-08-21 05:26:00,63.3,60.0,30.03,SSW,202,1.1,-999.0,89,-99.99,,,0.00,Acu-Link.com,2013-08-21 09:26:00,
2013-08-21 05:42:00,62.8,59.8,30.04,West,270,2.7,-999.0,90,-99.99,,,0.00,Acu-Link.com,2013-08-21 09:42:00,
2013-08-21 05:57:00,62.8,59.8,30.04,WSW,247,3.2,-999.0,90,-99.99,,,0.00,Acu-Link.com,2013-08-21 09:57:00,
2013-08-21 06:12:00,62.6,59.6,30.04,SW,225,2.2,-999.0,90,-99.99,,,0.00,Acu-Link.com,2013-08-21 10:12:00,
2013-08-21 06:27:00,62.8,59.8,30.05,West,270,2.7,-999.0,90,-99.99,,,0.00,Acu-Link.com,2013-08-21 10:27:00,
2013-08-21 06:42:00,63.0,60.0,30.05,West,270,0.0,-999.0,90,-99.99,,,0.00,Acu-Link.com,2013-08-21 10:42:00,
2013-08-21 06:58:00,63.9,60.3,30.06,SW,225,0.0,-999.0,88,-99.99,,,0.00,Acu-Link.com,2013-08-21 10:58:00,
2013-08-21 07:13:00,64.2,60.2,30.05,SW,225,4.2,-999.0,87,-99.99,,,0.00,Acu-Link.com,2013-08-21 11:13:00,
2013-08-21 07:28:00,64.4,60.1,30.05,WSW,247,3.2,-999.0,86,-99.99,,,0.00,Acu-Link.com,2013-08-21 11:28:00,
2013-08-21 07:43:00,65.3,60.3,30.06,SSE,157,3.7,-999.0,84,-99.99,,,0.00,Acu-Link.com,2013-08-21 11:43:00,
2013-08-21 07:59:00,66.2,61.2,30.06,ESE,112,1.1,-999.0,84,-99.99,,,0.00,Acu-Link.com,2013-08-21 11:59:00,
2013-08-21 08:14:00,66.7,61.0,30.06,South,180,2.7,-999.0,82,-99.99,,,0.00,Acu-Link.com,2013-08-21 12:14:00,
2013-08-21 08:29:00,67.3,60.9,30.07,NNE,22,2.2,-999.0,80,-99.99,,,0.00,Acu-Link.com,2013-08-21 12:29:00,
2013-08-21 08:44:00,68.4,61.3,30.07,SW,225,2.7,-999.0,78,-99.99,,,0.00,Acu-Link.com,2013-08-21 12:44:00,
2013-08-21 08:59:00,69.6,60.9,30.06,South,180,1.7,-999.0,74,-99.99,,,0.00,Acu-Link.com,2013-08-21 12:59:00,
2013-08-21 09:15:00,73.9,62.2,30.06,SSE,157,4.2,-999.0,67,-99.99,,,0.00,Acu-Link.com,2013-08-21 13:15:00,
2013-08-21 09:30:00,72.9,62.1,30.05,ESE,112,4.7,-999.0,69,-99.99,,,0.00,Acu-Link.com,2013-08-21 13:30:00,
2013-08-21 09:45:00,73.0,62.2,30.05,South,180,4.2,-999.0,69,-99.99,,,0.00,Acu-Link.com,2013-08-21 13:45:00,
2013-08-21 10:01:00,73.6,62.8,30.05,SE,135,4.2,-999.0,69,-99.99,,,0.00,Acu-Link.com,2013-08-21 14:01:00,
2013-08-21 10:16:00,74.3,63.0,30.05,South,180,7.3,-999.0,68,-99.99,,,0.00,Acu-Link.com,2013-08-21 14:16:00,
2013-08-21 10:31:00,75.9,63.3,30.05,South,180,4.7,-999.0,65,-99.99,,,0.00,Acu-Link.com,2013-08-21 14:31:00,
2013-08-21 10:46:00,76.1,63.9,30.06,SW,225,5.8,-999.0,66,-99.99,,,0.00,Acu-Link.com,2013-08-21 14:46:00,
2013-08-21 11:01:00,78.3,64.6,30.05,SSW,202,3.2,-999.0,63,-99.99,,,0.00,Acu-Link.com,2013-08-21 15:01:00,
2013-08-21 11:17:00,79.0,65.3,30.05,WNW,292,4.7,-999.0,63,-99.99,,,0.00,Acu-Link.com,2013-08-21 15:17:00,
2013-08-21 11:32:00,79.9,65.7,30.04,North,0,4.7,-999.0,62,-99.99,,,0.00,Acu-Link.com,2013-08-21 15:32:00,
2013-08-21 11:47:00,80.4,66.2,30.03,SW,225,6.3,-999.0,62,-99.99,,,0.00,Acu-Link.com,2013-08-21 15:47:00,
2013-08-21 12:02:00,83.3,67.9,30.03,West,270,4.7,-999.0,60,-99.99,,,0.00,Acu-Link.com,2013-08-21 16:02:00,
2013-08-21 12:17:00,81.9,67.6,30.02,SW,225,5.3,-999.0,62,-99.99,,,0.00,Acu-Link.com,2013-08-21 16:17:00,
2013-08-21 12:33:00,83.8,68.4,30.02,NNW,337,6.3,-999.0,60,-99.99,,,0.00,Acu-Link.com,2013-08-21 16:33:00,
2013-08-21 12:48:00,84.4,68.0,30.01,SW,225,8.3,-999.0,58,-99.99,,,0.00,Acu-Link.com,2013-08-21 16:48:00,
2013-08-21 13:03:00,85.1,68.1,30.02,SW,225,5.3,-999.0,57,-99.99,,,0.00,Acu-Link.com,2013-08-21 17:03:00,
2013-08-21 13:18:00,85.6,67.5,30.00,SSW,202,9.4,-999.0,55,-99.99,,,0.00,Acu-Link.com,2013-08-21 17:18:00,
2013-08-21 13:34:00,84.6,67.1,29.99,SSE,157,4.7,-999.0,56,-99.99,,,0.00,Acu-Link.com,2013-08-21 17:34:00,
2013-08-21 13:49:00,87.3,67.5,29.99,South,180,2.2,-999.0,52,-99.99,,,0.00,Acu-Link.com,2013-08-21 17:49:00,
2013-08-21 14:04:00,87.1,65.0,30.00,SW,225,5.3,-999.0,48,-99.99,,,0.00,Acu-Link.com,2013-08-21 18:04:00,
2013-08-21 14:19:00,87.8,63.8,29.99,South,180,4.7,-999.0,45,-99.99,,,0.00,Acu-Link.com,2013-08-21 18:19:00,
2013-08-21 14:35:00,87.3,64.0,29.98,SSE,157,5.8,-999.0,46,-99.99,,,0.00,Acu-Link.com,2013-08-21 18:35:00,
2013-08-21 14:50:00,87.6,63.6,29.98,SW,225,6.3,-999.0,45,-99.99,,,0.00,Acu-Link.com,2013-08-21 18:50:00,
2013-08-21 15:05:00,88.0,62.7,29.96,South,180,3.7,-999.0,43,-99.99,,,0.00,Acu-Link.com,2013-08-21 19:05:00,
2013-08-21 15:20:00,88.0,64.6,29.95,ENE,67,4.7,-999.0,46,-99.99,,,0.00,Acu-Link.com,2013-08-21 19:20:00,
2013-08-21 15:35:00,88.0,64.0,29.95,South,180,6.8,-999.0,45,-99.99,,,0.00,Acu-Link.com,2013-08-21 19:35:00,
2013-08-21 15:51:00,88.3,65.5,29.94,SE,135,6.3,-999.0,47,-99.99,,,0.00,Acu-Link.com,2013-08-21 19:51:00,
2013-08-21 16:06:00,88.2,66.0,29.93,West,270,7.8,-999.0,48,-99.99,,,0.00,Acu-Link.com,2013-08-21 20:06:00,
2013-08-21 16:21:00,86.9,64.8,29.93,SW,225,5.8,-999.0,48,-99.99,,,0.00,Acu-Link.com,2013-08-21 20:21:00,
2013-08-21 16:36:00,87.1,64.4,29.94,SSE,157,6.3,-999.0,47,-99.99,,,0.00,Acu-Link.com,2013-08-21 20:36:00,
2013-08-21 16:52:00,87.1,63.1,29.93,SW,225,7.8,-999.0,45,-99.99,,,0.00,Acu-Link.com,2013-08-21 20:52:00,
2013-08-21 17:07:00,86.9,63.6,29.93,SSW,202,6.8,-999.0,46,-99.99,,,0.00,Acu-Link.com,2013-08-21 21:07:00,
2013-08-21 17:22:00,86.4,63.1,29.91,West,270,3.7,-999.0,46,-99.99,,,0.00,Acu-Link.com,2013-08-21 21:22:00,
2013-08-21 17:38:00,86.7,62.8,29.92,South,180,7.8,-999.0,45,-99.99,,,0.00,Acu-Link.com,2013-08-21 21:38:00,
2013-08-21 17:53:00,87.4,62.8,29.92,SW,225,6.8,-999.0,44,-99.99,,,0.00,Acu-Link.com,2013-08-21 21:53:00,
2013-08-21 18:08:00,86.2,62.3,29.91,SE,135,3.2,-999.0,45,-99.99,,,0.00,Acu-Link.com,2013-08-21 22:08:00,
2013-08-21 18:23:00,85.5,62.3,29.91,SW,225,4.2,-999.0,46,-99.99,,,0.00,Acu-Link.com,2013-08-21 22:23:00,
2013-08-21 18:38:00,85.3,63.4,29.91,West,270,2.7,-999.0,48,-99.99,,,0.00,Acu-Link.com,2013-08-21 22:38:00,
2013-08-21 18:54:00,83.7,63.1,29.90,WNW,292,5.8,-999.0,50,-99.99,,,0.00,Acu-Link.com,2013-08-21 22:54:00,
2013-08-21 19:09:00,82.6,63.7,29.91,SSW,202,5.3,-999.0,53,-99.99,,,0.00,Acu-Link.com,2013-08-21 23:09:00,
2013-08-21 19:24:00,81.0,63.3,29.90,SSW,202,5.8,-999.0,55,-99.99,,,0.00,Acu-Link.com,2013-08-21 23:24:00,
2013-08-21 19:39:00,79.9,63.8,29.91,SW,225,6.3,-999.0,58,-99.99,,,0.00,Acu-Link.com,2013-08-21 23:39:00,
2013-08-21 19:54:00,79.3,63.7,29.91,SW,225,5.8,-999.0,59,-99.99,,,0.00,Acu-Link.com,2013-08-21 23:54:00,
2013-08-21 20:10:00,78.4,63.8,29.91,WSW,247,4.2,-999.0,61,-99.99,,,0.00,Acu-Link.com,2013-08-22 00:10:00,
2013-08-21 20:25:00,77.9,63.3,29.91,WSW,247,4.7,-999.0,61,-99.99,,,0.00,Acu-Link.com,2013-08-22 00:25:00,
2013-08-21 20:40:00,77.2,62.7,29.92,SW,225,4.2,-999.0,61,-99.99,,,0.00,Acu-Link.com,2013-08-22 00:40:00,
2013-08-21 20:55:00,77.0,63.0,29.92,SW,225,2.7,-999.0,62,-99.99,,,0.00,Acu-Link.com,2013-08-22 00:55:00,
2013-08-21 21:10:00,76.6,62.6,29.92,SSW,202,4.2,-999.0,62,-99.99,,,0.00,Acu-Link.com,2013-08-22 01:10:00,
2013-08-21 21:26:00,75.9,61.9,29.92,West,270,3.7,-999.0,62,-99.99,,,0.00,Acu-Link.com,2013-08-22 01:26:00,
2013-08-21 21:41:00,75.7,62.2,29.91,WSW,247,5.3,-999.0,63,-99.99,,,0.00,Acu-Link.com,2013-08-22 01:41:00,
2013-08-21 21:56:00,75.0,62.0,29.91,SW,225,3.7,-999.0,64,-99.99,,,0.00,Acu-Link.com,2013-08-22 01:56:00,
2013-08-21 22:11:00,74.1,62.0,29.91,SW,225,4.7,-999.0,66,-99.99,,,0.00,Acu-Link.com,2013-08-22 02:11:00,
2013-08-21 22:27:00,73.8,62.1,29.90,West,270,2.2,-999.0,67,-99.99,,,0.00,Acu-Link.com,2013-08-22 02:27:00,
2013-08-21 22:42:00,72.7,62.7,29.91,West,270,0.0,-999.0,71,-99.99,,,0.00,Acu-Link.com,2013-08-22 02:42:00,
2013-08-21 22:57:00,72.3,62.4,29.91,SSW,202,2.2,-999.0,71,-99.99,,,0.00,Acu-Link.com,2013-08-22 02:57:00,
2013-08-21 23:12:00,71.2,62.5,29.90,SW,225,1.7,-999.0,74,-99.99,,,0.00,Acu-Link.com,2013-08-22 03:12:00,
2013-08-21 23:27:00,71.2,62.1,29.91,WSW,247,0.0,-999.0,73,-99.99,,,0.00,Acu-Link.com,2013-08-22 03:27:00,
2013-08-21 23:43:00,71.2,62.1,29.91,ESE,112,0.0,-999.0,73,-99.99,,,0.00,Acu-Link.com,2013-08-22 03:43:00,
2013-08-21 23:58:00,70.0,62.8,29.91,SSW,202,1.7,-999.0,78,-99.99,,,0.00,Acu-Link.com,2013-08-22 03:58:00,